Time,TemperatureF,DewpointF,PressureIn,WindDirection,WindDirectionDegrees,WindSpeedMPH,WindSpeedGustMPH,Humidity,HourlyPrecipIn,Conditions,Clouds,dailyrainin,SoftwareType,DateUTC
2013-05-19 01:00:00,70.9,63.7,30.11,ESE,113,0.0,0.0,78,0.00,,,0.00,WUHU216HW,2013-05-19 05:00:00,
2013-05-19 01:05:00,70.9,63.7,30.11,ESE,113,0.0,0.0,78,0.00,,,0.00,WUHU216HW,2013-05-19 05:05:00,
2013-05-19 02:30:00,70.6,64.5,30.11,SE,135,0.0,0.0,81,0.00,,,0.00,WUHU216HW,2013-05-19 06:30:00,
2013-05-19 02:35:00,70.6,64.5,30.11,SE,135,0.0,0.0,81,0.00,,,0.00,WUHU216HW,2013-05-19 06:35:00,
2013-05-19 03:00:00,70.4,64.6,30.10,SSW,203,0.0,0.0,82,0.00,,,0.00,WUHU216HW,2013-05-19 07:00:00,
2013-05-19 03:05:00,70.4,64.6,30.10,SSW,203,0.0,0.0,82,0.00,,,0.00,WUHU216HW,2013-05-19 07:05:00,
2013-05-19 03:30:00,70.2,64.5,30.10,NNE,23,0.0,0.0,82,0.00,,,0.00,WUHU216HW,2013-05-19 07:30:00,
2013-05-19 03:35:00,70.2,64.5,30.10,NNE,23,0.0,0.0,82,0.00,,,0.00,WUHU216HW,2013-05-19 07:35:00,
2013-05-19 05:00:00,69.5,64.1,30.10,ENE,68,0.0,0.0,83,0.00,,,0.00,WUHU216HW,2013-05-19 09:00:00,
2013-05-19 06:00:00,68.9,63.9,30.11,East,90,0.0,0.0,84,0.00,,,0.00,WUHU216HW,2013-05-19 10:00:00,
2013-05-19 06:05:00,68.9,63.9,30.11,East,90,0.0,0.0,84,0.00,,,0.00,WUHU216HW,2013-05-19 10:05:00,
2013-05-19 06:30:00,68.8,63.7,30.11,East,90,0.0,0.0,84,0.00,,,0.00,WUHU216HW,2013-05-19 10:30:00,
2013-05-19 06:35:00,68.8,63.7,30.11,East,90,0.0,0.0,84,0.00,,,0.00,WUHU216HW,2013-05-19 10:35:00,
2013-05-19 08:30:00,72.7,67.2,30.14,SW,225,0.0,0.0,83,0.00,,,0.00,WUHU216HW,2013-05-19 12:30:00,
2013-05-19 08:35:00,72.7,67.2,30.14,SW,225,0.0,0.0,83,0.00,,,0.00,WUHU216HW,2013-05-19 12:35:00,
2013-05-19 09:00:00,74.5,68.4,30.14,West,270,0.4,0.4,81,0.00,,,0.00,WUHU216HW,2013-05-19 13:00:00,
2013-05-19 09:05:00,74.5,68.4,30.14,West,270,0.4,0.4,81,0.00,,,0.00,WUHU216HW,2013-05-19 13:05:00,
2013-05-19 09:30:00,76.5,69.1,30.15,SE,135,0.2,0.2,78,0.00,,,0.00,WUHU216HW,2013-05-19 13:30:00,
2013-05-19 09:35:00,76.5,69.1,30.15,SE,135,0.2,0.2,78,0.00,,,0.00,WUHU216HW,2013-05-19 13:35:00,
2013-05-19 11:30:00,71.3,65.2,30.15,SW,225,0.0,0.0,81,0.00,,,0.00,WUHU216HW,2013-05-19 15:30:00,
2013-05-19 11:35:00,71.3,65.2,30.15,SW,225,0.0,0.0,81,0.00,,,0.00,WUHU216HW,2013-05-19 15:35:00,
2013-05-19 12:30:00,70.2,65.1,30.14,SE,135,3.8,3.8,84,0.00,,,0.00,WUHU216HW,2013-05-19 16:30:00,
2013-05-19 12:35:00,70.2,65.1,30.14,SE,135,3.8,3.8,84,0.00,,,0.00,WUHU216HW,2013-05-19 16:35:00,
2013-05-19 13:00:00,70.4,65.3,30.13,SW,225,0.4,0.4,84,0.00,,,0.00,WUHU216HW,2013-05-19 17:00:00,
2013-05-19 13:05:00,70.4,65.3,30.13,SW,225,0.4,0.4,84,0.00,,,0.00,WUHU216HW,2013-05-19 17:05:00,
2013-05-19 13:30:00,73.4,68.3,30.12,West,270,1.1,1.1,84,0.00,,,0.00,WUHU216HW,2013-05-19 17:30:00,
2013-05-19 13:35:00,73.4,68.3,30.12,West,270,1.1,1.1,84,0.00,,,0.00,WUHU216HW,2013-05-19 17:35:00,
2013-05-19 14:00:00,78.1,70.3,30.10,NE,45,0.2,0.2,77,0.00,,,0.00,WUHU216HW,2013-05-19 18:00:00,
2013-05-19 14:05:00,78.1,70.3,30.10,NE,45,0.2,0.2,77,0.00,,,0.00,WUHU216HW,2013-05-19 18:05:00,
2013-05-19 19:30:00,72.0,65.9,30.08,SSW,203,0.0,0.0,81,0.00,,,0.00,WUHU216HW,2013-05-19 23:30:00,
2013-05-19 19:35:00,72.0,65.9,30.08,SSW,203,0.0,0.0,81,0.00,,,0.00,WUHU216HW,2013-05-19 23:35:00,
2013-05-19 19:40:00,72.0,65.9,30.08,SSW,203,0.0,0.0,81,0.00,,,0.00,WUHU216HW,2013-05-19 23:40:00,
2013-05-19 20:00:00,72.0,66.3,30.08,SW,225,0.4,0.4,82,0.00,,,0.00,WUHU216HW,2013-05-20 00:00:00,
2013-05-19 20:05:00,72.0,66.3,30.08,SW,225,0.4,0.4,82,0.00,,,0.00,WUHU216HW,2013-05-20 00:05:00,
2013-05-19 20:30:00,71.8,66.1,30.09,SSW,203,0.0,0.0,82,0.00,,,0.00,WUHU216HW,2013-05-20 00:30:00,
2013-05-19 20:35:00,71.8,66.1,30.09,SSW,203,0.0,0.0,82,0.00,,,0.00,WUHU216HW,2013-05-20 00:35:00,
2013-05-19 21:30:00,70.9,65.8,30.09,East,90,0.4,0.4,84,0.00,,,0.00,WUHU216HW,2013-05-20 01:30:00,
2013-05-19 21:35:00,70.9,65.8,30.09,East,90,0.4,0.4,84,0.00,,,0.00,WUHU216HW,2013-05-20 01:35:00,
2013-05-19 22:00:00,71.3,66.2,30.10,East,90,0.4,0.4,84,0.00,,,0.00,WUHU216HW,2013-05-20 02:00:00,
2013-05-19 22:05:00,71.3,66.2,30.10,East,90,0.4,0.4,84,0.00,,,0.00,WUHU216HW,2013-05-20 02:05:00,
2013-05-19 22:30:00,71.1,66.0,30.11,NW,315,0.0,0.0,84,0.00,,,0.00,WUHU216HW,2013-05-20 02:30:00,